TAF LEBZ
LEBZ 080200Z 0803/0903 28009KT 9999 FEW020 TX15/0815Z TN07/0807Z PROB30 0811/0818 RA=
METAR LEBZ
LEBZ 072000Z 23013KT 9999 SCT030 BKN042 14/12 Q1018=
LEBZ 071930Z 23013KT 9999 SCT037 SCT047 14/12 Q1018=
LEBZ 071900Z 23013KT 190V250 9999 FEW020 14/12 Q1018=
LEBZ 071830Z 23013KT 190V250 9999 FEW020 SCT049 14/12 Q1018=
LEBZ 071800Z 23011KT 200V260 9999 FEW026 SCT049 14/13 Q1018=
WC LEBZ
WS LEBZ
WV LEBZ